createdAt,value
2022-11-15T00:02:16.681Z,38.30
2022-11-15T00:05:03.883Z,34.85
2022-11-15T00:07:55.794Z,32.72
2022-11-15T00:10:42.080Z,36.85
2022-11-15T00:13:28.225Z,35.40
2022-11-15T00:16:13.670Z,36.17
2022-11-15T00:18:59.370Z,38.58
2022-11-15T00:21:46.203Z,40.97
2022-11-15T00:24:31.891Z,40.80
2022-11-15T00:27:29.465Z,40.25
2022-11-15T00:30:15.769Z,38.90
2022-11-15T00:33:07.200Z,41.17
2022-11-15T00:35:52.915Z,40.40
2022-11-15T00:38:41.863Z,37.20
2022-11-15T00:41:27.351Z,41.67
2022-11-15T00:44:13.936Z,38.33
2022-11-15T00:46:59.361Z,44.97
2022-11-15T00:49:47.090Z,45.60
2022-11-15T00:52:32.801Z,45.55
2022-11-15T00:55:20.227Z,45.78
2022-11-15T00:58:05.754Z,46.58
2022-11-15T01:00:51.148Z,47.08
2022-11-15T01:03:38.450Z,43.42
2022-11-15T01:09:29.481Z,44.28
2022-11-15T01:12:14.964Z,42.05
2022-11-15T01:15:00.458Z,46.35
2022-11-15T01:17:45.960Z,37.55
2022-11-15T01:20:31.898Z,44.92
2022-11-15T01:23:17.646Z,44.28
2022-11-15T01:26:05.350Z,46.13
2022-11-15T01:28:52.464Z,43.47
2022-11-15T01:32:03.694Z,44.58
2022-11-15T01:34:49.145Z,45.78
2022-11-15T01:37:34.779Z,42.58
2022-11-15T01:40:20.514Z,46.42
2022-11-15T01:43:29.888Z,39.92
2022-11-15T01:46:25.498Z,39.35
2022-11-15T01:49:16.957Z,42.65
2022-11-15T01:52:19.582Z,41.35
2022-11-15T01:55:17.153Z,45.53
2022-11-15T01:58:06.615Z,38.25
2022-11-15T02:01:03.461Z,37.53
2022-11-15T02:04:31.534Z,39.35
2022-11-15T02:07:47.151Z,44.72
2022-11-15T02:10:32.925Z,39.58
2022-11-15T02:13:18.971Z,38.35
2022-11-15T02:16:35.560Z,35.55
2022-11-15T02:19:33.738Z,39.78
2022-11-15T02:22:22.084Z,34.83
2022-11-15T02:28:53.790Z,36.50
2022-11-15T02:31:56.651Z,38.03
2022-11-15T02:35:00.747Z,35.85
2022-11-15T02:38:33.963Z,37.17
2022-11-15T02:44:50.046Z,36.67
2022-11-15T02:47:42.877Z,38.63
2022-11-15T02:50:39.242Z,37.15
2022-11-15T02:53:29.276Z,33.40
2022-11-15T02:56:17.825Z,38.42
2022-11-15T02:59:18.532Z,35.35
2022-11-15T03:06:22.875Z,38.92
2022-11-15T03:09:58.985Z,33.72
2022-11-15T03:12:57.440Z,34.22
2022-11-15T03:16:10.497Z,30.63
2022-11-15T03:19:13.281Z,36.90
2022-11-15T03:22:34.870Z,37.70
2022-11-15T03:25:47.936Z,39.70
2022-11-15T03:28:47.791Z,35.88
2022-11-15T03:32:05.495Z,33.83
2022-11-15T03:34:57.189Z,39.25
2022-11-15T03:37:51.661Z,33.28
2022-11-15T03:40:55.290Z,32.50
2022-11-15T03:44:09.112Z,34.35
2022-11-15T03:47:14.720Z,37.95
2022-11-15T03:50:05.936Z,39.05
2022-11-15T03:52:52.929Z,40.63
2022-11-15T03:55:39.626Z,33.40
2022-11-15T03:58:25.325Z,37.13
2022-11-15T04:01:10.903Z,32.63
2022-11-15T04:03:56.334Z,30.75
2022-11-15T04:06:41.840Z,35.38
2022-11-15T04:09:27.266Z,34.05
2022-11-15T04:12:15.030Z,31.67
2022-11-15T04:15:13.337Z,32.35
2022-11-15T04:17:59.020Z,34.10
2022-11-15T04:21:02.977Z,30.10
2022-11-15T04:23:54.197Z,34.22
2022-11-15T04:26:39.719Z,31.60
2022-11-15T04:29:40.508Z,30.27
2022-11-15T04:32:26.051Z,30.95
2022-11-15T04:35:11.498Z,26.80
2022-11-15T04:37:58.577Z,28.70
2022-11-15T04:40:43.925Z,29.13
2022-11-15T04:43:30.877Z,29.15
2022-11-15T04:46:17.069Z,32.28
2022-11-15T04:49:02.374Z,31.10
2022-11-15T04:51:48.254Z,30.88
2022-11-15T04:54:34.033Z,32.38
2022-11-15T04:57:19.896Z,34.38
2022-11-15T05:00:30.178Z,33.00
2022-11-15T05:03:34.656Z,29.45
2022-11-15T05:06:56.073Z,33.25
2022-11-15T05:12:43.431Z,32.15
2022-11-15T05:15:28.654Z,26.50
2022-11-15T05:18:17.247Z,28.35
2022-11-15T05:21:24.403Z,26.10
2022-11-15T05:24:32.580Z,26.70
2022-11-15T05:27:18.122Z,26.42
2022-11-15T05:30:03.895Z,29.50
2022-11-15T05:32:49.932Z,31.25
2022-11-15T05:35:41.253Z,29.63
2022-11-15T05:38:27.651Z,27.90
2022-11-15T05:41:18.135Z,28.27
2022-11-15T05:44:08.226Z,29.27
2022-11-15T05:46:56.936Z,28.08
2022-11-15T05:50:13.661Z,33.25
2022-11-15T05:53:03.719Z,33.55
2022-11-15T05:55:50.848Z,30.10
2022-11-15T05:58:38.160Z,31.23
2022-11-15T06:01:45.301Z,27.90
2022-11-15T06:04:36.772Z,31.17
2022-11-15T06:07:22.737Z,31.23
2022-11-15T06:10:09.294Z,29.65
2022-11-15T06:13:03.401Z,31.13
2022-11-15T06:15:51.649Z,27.90
2022-11-15T06:18:37.455Z,30.38
2022-11-15T06:21:23.517Z,29.95
2022-11-15T06:24:09.338Z,29.60
2022-11-15T06:26:55.168Z,29.92
2022-11-15T06:29:42.516Z,29.90
2022-11-15T06:32:30.319Z,30.25
2022-11-15T06:35:16.658Z,32.58
2022-11-15T06:38:11.079Z,28.83
2022-11-15T06:41:02.187Z,33.28
2022-11-15T06:43:47.939Z,33.58
2022-11-15T06:49:38.631Z,41.08
2022-11-15T06:52:27.896Z,37.42
2022-11-15T06:59:19.813Z,43.50
2022-11-15T07:55:01.884Z,29.10
2022-11-15T07:57:47.485Z,28.52
2022-11-15T08:00:38.703Z,34.30
2022-11-15T08:06:09.162Z,26.75
2022-11-15T08:08:54.710Z,31.17
2022-11-15T08:11:40.174Z,28.00
2022-11-15T08:14:26.011Z,30.33
2022-11-15T08:17:11.770Z,25.73
2022-11-15T08:19:57.124Z,26.02
2022-11-15T08:22:42.854Z,25.48
2022-11-15T08:25:31.438Z,23.20
2022-11-15T08:28:18.679Z,25.88
2022-11-15T08:31:04.656Z,22.30
2022-11-15T08:33:53.024Z,23.05
2022-11-15T08:36:49.331Z,22.92
2022-11-15T08:46:15.003Z,18.38
2022-11-15T09:04:32.157Z,15.55
2022-11-15T09:07:20.605Z,13.90
2022-11-15T09:10:33.798Z,14.13
2022-11-15T09:13:44.599Z,12.30
2022-11-15T09:16:50.694Z,13.75
2022-11-15T09:19:36.014Z,13.05
2022-11-15T09:22:21.377Z,14.05
2022-11-15T09:25:10.973Z,13.38
2022-11-15T09:27:56.917Z,14.70
2022-11-15T09:30:42.300Z,15.20
2022-11-15T09:33:29.186Z,16.25
2022-11-15T09:36:14.708Z,13.35
2022-11-15T09:39:01.305Z,13.65
2022-11-15T09:41:52.735Z,12.88
2022-11-15T09:45:14.319Z,13.40
2022-11-15T09:48:36.592Z,12.82
2022-11-15T09:51:29.394Z,14.48
2022-11-15T09:57:05.838Z,11.93
2022-11-15T09:59:53.057Z,13.30
2022-11-15T10:02:35.068Z,11.88
2022-11-15T10:05:02.899Z,13.38
2022-11-15T10:07:41.655Z,12.95
2022-11-15T10:10:30.105Z,15.68
2022-11-15T10:12:57.268Z,13.43
2022-11-15T10:15:24.371Z,13.93
2022-11-15T10:18:19.950Z,12.18
2022-11-15T10:21:01.000Z,12.15
2022-11-15T10:23:28.935Z,13.65
2022-11-15T10:26:03.692Z,12.77
2022-11-15T10:28:33.858Z,12.90
2022-11-15T10:31:05.795Z,14.75
2022-11-15T10:33:37.653Z,12.52
2022-11-15T10:36:09.805Z,11.32
2022-11-15T10:38:51.795Z,13.60
2022-11-15T10:41:19.864Z,14.30
2022-11-15T10:44:07.414Z,15.52
2022-11-15T10:46:47.467Z,13.60
2022-11-15T10:49:22.661Z,11.30
2022-11-15T10:51:54.026Z,13.65
2022-11-15T10:54:28.771Z,13.90
2022-11-15T10:56:58.934Z,10.98
2022-11-15T10:59:38.825Z,13.15
2022-11-15T11:02:30.211Z,11.93
2022-11-15T11:04:57.856Z,12.35
2022-11-15T11:07:30.583Z,12.90
2022-11-15T11:10:49.168Z,14.77
2022-11-15T11:13:33.680Z,14.32
2022-11-15T11:16:06.418Z,12.98
2022-11-15T11:18:42.435Z,14.68
2022-11-15T11:21:18.411Z,14.40
2022-11-15T11:23:59.595Z,14.43
2022-11-15T11:26:29.223Z,13.57
2022-11-15T11:29:16.831Z,13.48
2022-11-15T11:32:02.152Z,12.65
2022-11-15T11:34:46.560Z,15.95
2022-11-15T11:37:41.027Z,14.02
2022-11-15T11:40:14.025Z,11.88
2022-11-15T11:42:59.009Z,14.38
2022-11-15T11:45:37.764Z,14.70
2022-11-15T11:48:15.699Z,12.13
2022-11-15T11:50:45.739Z,12.55
2022-11-15T11:53:19.122Z,12.95
2022-11-15T11:55:54.103Z,12.23
2022-11-15T11:58:27.121Z,12.05
2022-11-15T12:00:58.468Z,12.77
2022-11-15T12:03:38.999Z,11.30
2022-11-15T12:06:27.815Z,10.98
2022-11-15T12:09:13.012Z,11.32
2022-11-15T12:11:56.295Z,12.38
2022-11-15T12:14:30.849Z,13.75
2022-11-15T12:16:59.049Z,11.70
2022-11-15T12:19:26.376Z,11.30
2022-11-15T12:22:15.026Z,12.52
2022-11-15T12:24:52.410Z,11.70
2022-11-15T12:27:32.165Z,11.88
2022-11-15T12:30:04.272Z,11.02
2022-11-15T12:32:38.642Z,11.45
2022-11-15T12:35:21.493Z,11.18
2022-11-15T12:37:50.860Z,12.80
2022-11-15T12:40:25.234Z,12.07
2022-11-15T12:43:23.448Z,11.27
2022-11-15T12:45:50.218Z,13.15
2022-11-15T12:48:16.750Z,12.57
2022-11-15T12:50:55.485Z,12.13
2022-11-15T12:53:28.651Z,11.85
2022-11-15T12:56:13.986Z,12.07
2022-11-15T12:58:51.560Z,12.15
2022-11-15T13:01:33.840Z,13.38
2022-11-15T13:04:19.411Z,13.65
2022-11-15T13:06:50.367Z,12.43
2022-11-15T13:09:29.224Z,14.45
2022-11-15T13:11:57.629Z,11.05
2022-11-15T13:14:45.650Z,11.90
2022-11-15T13:17:23.841Z,11.55
2022-11-15T13:19:59.630Z,9.45
2022-11-15T13:23:00.645Z,11.82
2022-11-15T13:25:39.375Z,12.15
2022-11-15T13:28:16.365Z,11.85
2022-11-15T13:30:53.616Z,12.85
2022-11-15T13:33:34.519Z,10.82
2022-11-15T13:36:07.509Z,13.13
2022-11-15T13:38:37.891Z,12.30
2022-11-15T13:41:21.808Z,12.05
2022-11-15T13:43:50.232Z,13.02
2022-11-15T13:46:21.618Z,12.00
2022-11-15T13:48:57.371Z,11.02
2022-11-15T13:51:48.905Z,13.52
2022-11-15T13:54:25.817Z,12.20
2022-11-15T13:57:19.697Z,12.63
2022-11-15T13:59:50.990Z,12.70
2022-11-15T14:02:26.767Z,14.45
2022-11-15T14:05:01.008Z,12.63
2022-11-15T14:07:29.824Z,13.52
2022-11-15T14:09:57.165Z,13.90
2022-11-15T14:12:34.426Z,13.70
2022-11-15T14:15:19.886Z,14.60
2022-11-15T14:17:50.016Z,13.48
2022-11-15T14:23:25.499Z,14.00
2022-11-15T14:25:57.562Z,13.85
2022-11-15T14:28:24.117Z,13.10
2022-11-15T14:30:56.185Z,15.48
2022-11-15T14:33:33.431Z,14.30
2022-11-15T14:36:06.440Z,14.52
2022-11-15T14:38:33.578Z,18.60
2022-11-15T14:41:00.446Z,15.40
2022-11-15T14:43:27.145Z,15.35
2022-11-15T14:45:53.889Z,14.27
2022-11-15T14:48:21.054Z,15.05
2022-11-15T14:50:47.813Z,16.85
2022-11-15T14:53:18.882Z,17.08
2022-11-15T14:55:45.871Z,16.45
2022-11-15T14:58:12.545Z,16.55
2022-11-15T15:00:41.323Z,15.70
2022-11-15T15:03:08.676Z,18.30
2022-11-15T15:05:36.984Z,16.35
2022-11-15T15:08:04.035Z,19.08
2022-11-15T15:10:42.518Z,17.80
2022-11-15T15:13:21.286Z,19.98
2022-11-15T15:15:49.534Z,18.27
2022-11-15T15:18:16.738Z,20.40
2022-11-15T15:20:46.504Z,19.98
2022-11-15T15:23:18.797Z,20.80
2022-11-15T15:25:47.159Z,17.25
2022-11-15T15:28:14.438Z,16.58
2022-11-15T15:30:41.512Z,18.13
2022-11-15T15:43:30.690Z,19.38
2022-11-15T15:46:46.821Z,19.92
2022-11-15T15:49:13.700Z,17.55
2022-11-15T15:51:40.435Z,22.00
2022-11-15T15:54:07.195Z,22.17
2022-11-15T15:56:33.937Z,19.98
2022-11-15T15:59:00.778Z,22.48
